sensor_id;sensor_type;location;lat;lon;timestamp;P1;durP1;ratioP1;P2;durP2;ratioP2
80172;SDS011;69497;41.708;44.804;2023-05-01T00:00:58;3.15;;;1.02;;
80172;SDS011;69497;41.708;44.804;2023-05-01T00:03:25;2.15;;;1.08;;
80172;SDS011;69497;41.708;44.804;2023-05-01T00:05:57;2.03;;;0.90;;
80172;SDS011;69497;41.708;44.804;2023-05-01T00:08:28;2.88;;;1.40;;
80172;SDS011;69497;41.708;44.804;2023-05-01T00:10:54;1.60;;;0.90;;
80172;SDS011;69497;41.708;44.804;2023-05-01T00:13:20;2.53;;;1.10;;
80172;SDS011;69497;41.708;44.804;2023-05-01T00:15:49;1.95;;;1.10;;
80172;SDS011;69497;41.708;44.804;2023-05-01T00:18:16;1.67;;;0.95;;
80172;SDS011;69497;41.708;44.804;2023-05-01T00:20:42;4.13;;;1.20;;
80172;SDS011;69497;41.708;44.804;2023-05-01T00:23:08;1.38;;;0.90;;
80172;SDS011;69497;41.708;44.804;2023-05-01T00:25:34;2.35;;;1.10;;
80172;SDS011;69497;41.708;44.804;2023-05-01T00:27:59;4.32;;;1.42;;
80172;SDS011;69497;41.708;44.804;2023-05-01T00:30:25;2.10;;;1.00;;
80172;SDS011;69497;41.708;44.804;2023-05-01T00:32:54;1.75;;;1.00;;
80172;SDS011;69497;41.708;44.804;2023-05-01T00:35:20;2.10;;;0.98;;
80172;SDS011;69497;41.708;44.804;2023-05-01T00:37:47;2.38;;;0.90;;
80172;SDS011;69497;41.708;44.804;2023-05-01T00:40:13;1.45;;;0.80;;
80172;SDS011;69497;41.708;44.804;2023-05-01T00:42:39;1.70;;;0.93;;
80172;SDS011;69497;41.708;44.804;2023-05-01T00:45:05;4.47;;;1.30;;
80172;SDS011;69497;41.708;44.804;2023-05-01T00:47:35;1.90;;;1.00;;
80172;SDS011;69497;41.708;44.804;2023-05-01T00:50:02;2.10;;;1.08;;
80172;SDS011;69497;41.708;44.804;2023-05-01T00:52:29;3.05;;;1.08;;
80172;SDS011;69497;41.708;44.804;2023-05-01T00:54:56;2.80;;;1.20;;
80172;SDS011;69497;41.708;44.804;2023-05-01T00:57:22;5.05;;;1.33;;
80172;SDS011;69497;41.708;44.804;2023-05-01T00:59:48;2.97;;;1.40;;
80172;SDS011;69497;41.708;44.804;2023-05-01T01:02:14;2.38;;;1.15;;
80172;SDS011;69497;41.708;44.804;2023-05-01T01:04:40;3.35;;;1.05;;
80172;SDS011;69497;41.708;44.804;2023-05-01T01:10:26;4.18;;;1.88;;
80172;SDS011;69497;41.708;44.804;2023-05-01T01:21:11;4.75;;;2.13;;
80172;SDS011;69497;41.708;44.804;2023-05-01T01:29:55;3.28;;;1.60;;
80172;SDS011;69497;41.708;44.804;2023-05-01T01:32:36;1.55;;;0.90;;
80172;SDS011;69497;41.708;44.804;2023-05-01T01:35:24;3.55;;;1.70;;
80172;SDS011;69497;41.708;44.804;2023-05-01T01:38:05;5.32;;;2.38;;
80172;SDS011;69497;41.708;44.804;2023-05-01T01:40:36;2.35;;;1.23;;
80172;SDS011;69497;41.708;44.804;2023-05-01T01:43:09;2.72;;;1.63;;
80172;SDS011;69497;41.708;44.804;2023-05-01T01:45:40;3.95;;;1.73;;
80172;SDS011;69497;41.708;44.804;2023-05-01T01:48:13;3.00;;;1.35;;
80172;SDS011;69497;41.708;44.804;2023-05-01T01:50:42;3.35;;;1.25;;
80172;SDS011;69497;41.708;44.804;2023-05-01T01:53:13;5.00;;;1.35;;
80172;SDS011;69497;41.708;44.804;2023-05-01T01:55:44;6.25;;;1.55;;
80172;SDS011;69497;41.708;44.804;2023-05-01T01:58:12;2.42;;;1.27;;
80172;SDS011;69497;41.708;44.804;2023-05-01T02:00:40;4.78;;;1.52;;
80172;SDS011;69497;41.708;44.804;2023-05-01T02:03:10;1.85;;;0.95;;
80172;SDS011;69497;41.708;44.804;2023-05-01T02:05:42;2.88;;;1.40;;
80172;SDS011;69497;41.708;44.804;2023-05-01T02:08:14;3.08;;;1.52;;
80172;SDS011;69497;41.708;44.804;2023-05-01T02:10:42;4.50;;;2.17;;
80172;SDS011;69497;41.708;44.804;2023-05-01T02:13:09;3.40;;;1.45;;
80172;SDS011;69497;41.708;44.804;2023-05-01T02:15:39;3.67;;;1.75;;
80172;SDS011;69497;41.708;44.804;2023-05-01T02:18:05;2.97;;;1.40;;
80172;SDS011;69497;41.708;44.804;2023-05-01T02:20:32;1.88;;;0.90;;
80172;SDS011;69497;41.708;44.804;2023-05-01T02:23:02;5.10;;;1.20;;
80172;SDS011;69497;41.708;44.804;2023-05-01T02:25:30;4.75;;;1.20;;
80172;SDS011;69497;41.708;44.804;2023-05-01T02:28:02;3.45;;;1.20;;
80172;SDS011;69497;41.708;44.804;2023-05-01T02:30:37;2.58;;;1.17;;
80172;SDS011;69497;41.708;44.804;2023-05-01T02:33:07;2.60;;;1.10;;
80172;SDS011;69497;41.708;44.804;2023-05-01T02:35:41;2.95;;;1.40;;
80172;SDS011;69497;41.708;44.804;2023-05-01T02:38:09;2.28;;;1.08;;
80172;SDS011;69497;41.708;44.804;2023-05-01T02:40:38;2.13;;;1.02;;
80172;SDS011;69497;41.708;44.804;2023-05-01T02:43:05;3.17;;;0.98;;
80172;SDS011;69497;41.708;44.804;2023-05-01T02:45:36;2.00;;;0.95;;
80172;SDS011;69497;41.708;44.804;2023-05-01T02:48:08;3.25;;;1.42;;
80172;SDS011;69497;41.708;44.804;2023-05-01T02:50:35;1.42;;;0.80;;
80172;SDS011;69497;41.708;44.804;2023-05-01T02:53:05;2.80;;;1.10;;
80172;SDS011;69497;41.708;44.804;2023-05-01T02:55:40;5.95;;;1.38;;
80172;SDS011;69497;41.708;44.804;2023-05-01T02:58:18;2.50;;;1.15;;
80172;SDS011;69497;41.708;44.804;2023-05-01T03:00:47;3.85;;;1.95;;
80172;SDS011;69497;41.708;44.804;2023-05-01T03:03:14;3.03;;;1.10;;
80172;SDS011;69497;41.708;44.804;2023-05-01T03:05:41;3.47;;;1.02;;
80172;SDS011;69497;41.708;44.804;2023-05-01T03:08:08;2.28;;;0.85;;
80172;SDS011;69497;41.708;44.804;2023-05-01T03:10:38;3.72;;;1.35;;
80172;SDS011;69497;41.708;44.804;2023-05-01T03:13:05;3.88;;;1.48;;
80172;SDS011;69497;41.708;44.804;2023-05-01T03:15:31;4.85;;;1.02;;
80172;SDS011;69497;41.708;44.804;2023-05-01T03:17:57;3.05;;;1.17;;
80172;SDS011;69497;41.708;44.804;2023-05-01T03:20:23;3.60;;;1.10;;
80172;SDS011;69497;41.708;44.804;2023-05-01T03:22:50;4.75;;;0.90;;
80172;SDS011;69497;41.708;44.804;2023-05-01T03:25:16;1.92;;;0.90;;
80172;SDS011;69497;41.708;44.804;2023-05-01T03:27:42;2.70;;;0.90;;
80172;SDS011;69497;41.708;44.804;2023-05-01T03:30:09;2.28;;;1.00;;
80172;SDS011;69497;41.708;44.804;2023-05-01T03:32:39;2.88;;;1.13;;
80172;SDS011;69497;41.708;44.804;2023-05-01T03:35:12;3.00;;;1.08;;
80172;SDS011;69497;41.708;44.804;2023-05-01T03:37:38;2.65;;;0.80;;
80172;SDS011;69497;41.708;44.804;2023-05-01T03:40:05;1.70;;;0.80;;
80172;SDS011;69497;41.708;44.804;2023-05-01T03:42:50;3.90;;;0.80;;
80172;SDS011;69497;41.708;44.804;2023-05-01T03:45:20;5.03;;;1.17;;
80172;SDS011;69497;41.708;44.804;2023-05-01T03:47:46;2.42;;;0.98;;
80172;SDS011;69497;41.708;44.804;2023-05-01T03:50:13;3.40;;;1.13;;
80172;SDS011;69497;41.708;44.804;2023-05-01T03:52:41;1.98;;;1.08;;
80172;SDS011;69497;41.708;44.804;2023-05-01T03:55:07;3.72;;;1.08;;
80172;SDS011;69497;41.708;44.804;2023-05-01T03:57:40;1.80;;;0.95;;
80172;SDS011;69497;41.708;44.804;2023-05-01T04:00:06;1.90;;;1.05;;
80172;SDS011;69497;41.708;44.804;2023-05-01T04:02:45;2.65;;;1.13;;
80172;SDS011;69497;41.708;44.804;2023-05-01T04:05:16;2.50;;;0.90;;
80172;SDS011;69497;41.708;44.804;2023-05-01T04:07:48;1.88;;;0.90;;
80172;SDS011;69497;41.708;44.804;2023-05-01T04:10:15;3.40;;;1.20;;
80172;SDS011;69497;41.708;44.804;2023-05-01T04:12:49;2.38;;;0.68;;
80172;SDS011;69497;41.708;44.804;2023-05-01T04:15:15;3.33;;;1.05;;
80172;SDS011;69497;41.708;44.804;2023-05-01T04:17:41;3.45;;;1.40;;
80172;SDS011;69497;41.708;44.804;2023-05-01T04:20:10;3.60;;;2.17;;
80172;SDS011;69497;41.708;44.804;2023-05-01T04:22:37;3.08;;;1.52;;
80172;SDS011;69497;41.708;44.804;2023-05-01T04:25:03;2.88;;;1.13;;
80172;SDS011;69497;41.708;44.804;2023-05-01T04:27:29;4.05;;;1.10;;
80172;SDS011;69497;41.708;44.804;2023-05-01T04:29:56;2.95;;;1.20;;
80172;SDS011;69497;41.708;44.804;2023-05-01T04:32:22;2.25;;;1.08;;
80172;SDS011;69497;41.708;44.804;2023-05-01T04:34:48;4.10;;;1.20;;
80172;SDS011;69497;41.708;44.804;2023-05-01T04:37:14;5.13;;;1.80;;
80172;SDS011;69497;41.708;44.804;2023-05-01T04:39:42;3.40;;;1.20;;
80172;SDS011;69497;41.708;44.804;2023-05-01T04:42:09;3.60;;;1.33;;
80172;SDS011;69497;41.708;44.804;2023-05-01T04:44:36;7.70;;;1.30;;
80172;SDS011;69497;41.708;44.804;2023-05-01T04:47:02;3.63;;;1.30;;
80172;SDS011;69497;41.708;44.804;2023-05-01T04:49:29;4.13;;;1.50;;
80172;SDS011;69497;41.708;44.804;2023-05-01T04:51:56;4.30;;;1.35;;
80172;SDS011;69497;41.708;44.804;2023-05-01T04:54:25;2.33;;;1.05;;
80172;SDS011;69497;41.708;44.804;2023-05-01T04:59:36;2.75;;;1.30;;
80172;SDS011;69497;41.708;44.804;2023-05-01T05:02:03;5.72;;;1.00;;
80172;SDS011;69497;41.708;44.804;2023-05-01T05:04:29;2.08;;;1.00;;
80172;SDS011;69497;41.708;44.804;2023-05-01T05:06:56;4.53;;;1.08;;
80172;SDS011;69497;41.708;44.804;2023-05-01T05:09:30;3.22;;;1.00;;
80172;SDS011;69497;41.708;44.804;2023-05-01T05:11:56;5.75;;;1.38;;
80172;SDS011;69497;41.708;44.804;2023-05-01T05:14:23;4.00;;;1.25;;
80172;SDS011;69497;41.708;44.804;2023-05-01T05:16:49;6.28;;;1.80;;
80172;SDS011;69497;41.708;44.804;2023-05-01T05:19:16;3.08;;;1.23;;
80172;SDS011;69497;41.708;44.804;2023-05-01T05:21:42;5.68;;;1.75;;
80172;SDS011;69497;41.708;44.804;2023-05-01T05:24:08;6.05;;;1.58;;
80172;SDS011;69497;41.708;44.804;2023-05-01T05:26:34;11.00;;;1.45;;
80172;SDS011;69497;41.708;44.804;2023-05-01T05:29:02;4.07;;;1.20;;
80172;SDS011;69497;41.708;44.804;2023-05-01T05:31:28;6.47;;;1.60;;
80172;SDS011;69497;41.708;44.804;2023-05-01T05:33:54;4.53;;;1.50;;
80172;SDS011;69497;41.708;44.804;2023-05-01T05:36:22;4.63;;;1.50;;
80172;SDS011;69497;41.708;44.804;2023-05-01T05:38:50;2.70;;;1.00;;
80172;SDS011;69497;41.708;44.804;2023-05-01T05:41:17;4.55;;;1.30;;
80172;SDS011;69497;41.708;44.804;2023-05-01T05:43:45;2.83;;;1.15;;
80172;SDS011;69497;41.708;44.804;2023-05-01T05:46:11;2.97;;;1.30;;
80172;SDS011;69497;41.708;44.804;2023-05-01T05:48:39;2.72;;;1.25;;
80172;SDS011;69497;41.708;44.804;2023-05-01T05:51:06;10.13;;;1.50;;
80172;SDS011;69497;41.708;44.804;2023-05-01T05:53:33;3.67;;;1.75;;
80172;SDS011;69497;41.708;44.804;2023-05-01T05:55:59;3.65;;;1.30;;
80172;SDS011;69497;41.708;44.804;2023-05-01T05:58:25;3.28;;;0.95;;
80172;SDS011;69497;41.708;44.804;2023-05-01T06:00:51;6.70;;;1.23;;
80172;SDS011;69497;41.708;44.804;2023-05-01T06:03:19;3.78;;;1.10;;
80172;SDS011;69497;41.708;44.804;2023-05-01T06:05:48;2.38;;;0.90;;
80172;SDS011;69497;41.708;44.804;2023-05-01T06:08:15;4.45;;;1.30;;
80172;SDS011;69497;41.708;44.804;2023-05-01T06:10:42;3.78;;;1.08;;
80172;SDS011;69497;41.708;44.804;2023-05-01T06:13:08;5.82;;;1.17;;
80172;SDS011;69497;41.708;44.804;2023-05-01T06:15:36;5.78;;;1.10;;
80172;SDS011;69497;41.708;44.804;2023-05-01T06:18:03;4.40;;;1.17;;
80172;SDS011;69497;41.708;44.804;2023-05-01T06:20:29;3.75;;;1.17;;
80172;SDS011;69497;41.708;44.804;2023-05-01T06:22:56;5.70;;;1.13;;
80172;SDS011;69497;41.708;44.804;2023-05-01T06:25:39;4.38;;;1.15;;
80172;SDS011;69497;41.708;44.804;2023-05-01T06:28:05;5.55;;;1.30;;
80172;SDS011;69497;41.708;44.804;2023-05-01T06:30:34;4.53;;;1.20;;
80172;SDS011;69497;41.708;44.804;2023-05-01T06:33:00;5.55;;;1.30;;
80172;SDS011;69497;41.708;44.804;2023-05-01T06:35:27;3.90;;;1.30;;
80172;SDS011;69497;41.708;44.804;2023-05-01T06:37:53;5.97;;;1.73;;
80172;SDS011;69497;41.708;44.804;2023-05-01T06:40:23;4.68;;;1.45;;
80172;SDS011;69497;41.708;44.804;2023-05-01T06:42:49;7.28;;;1.20;;
80172;SDS011;69497;41.708;44.804;2023-05-01T06:45:15;11.07;;;1.30;;
80172;SDS011;69497;41.708;44.804;2023-05-01T06:47:41;3.35;;;1.15;;
80172;SDS011;69497;41.708;44.804;2023-05-01T06:50:08;2.58;;;1.38;;
80172;SDS011;69497;41.708;44.804;2023-05-01T06:52:34;3.13;;;1.10;;
80172;SDS011;69497;41.708;44.804;2023-05-01T06:55:00;7.57;;;1.30;;
80172;SDS011;69497;41.708;44.804;2023-05-01T06:57:26;4.80;;;1.27;;
80172;SDS011;69497;41.708;44.804;2023-05-01T06:59:52;4.15;;;1.52;;
80172;SDS011;69497;41.708;44.804;2023-05-01T07:02:18;2.90;;;1.40;;
80172;SDS011;69497;41.708;44.804;2023-05-01T07:04:45;7.65;;;1.38;;
80172;SDS011;69497;41.708;44.804;2023-05-01T07:07:11;7.90;;;1.60;;
80172;SDS011;69497;41.708;44.804;2023-05-01T07:09:37;4.65;;;1.70;;
80172;SDS011;69497;41.708;44.804;2023-05-01T07:12:04;2.33;;;0.95;;
80172;SDS011;69497;41.708;44.804;2023-05-01T07:14:30;6.82;;;1.50;;
80172;SDS011;69497;41.708;44.804;2023-05-01T07:16:56;5.78;;;1.25;;
80172;SDS011;69497;41.708;44.804;2023-05-01T07:19:22;3.53;;;1.23;;
80172;SDS011;69497;41.708;44.804;2023-05-01T07:21:48;7.20;;;1.50;;
80172;SDS011;69497;41.708;44.804;2023-05-01T07:24:14;5.00;;;1.40;;
80172;SDS011;69497;41.708;44.804;2023-05-01T07:26:41;10.80;;;1.40;;
80172;SDS011;69497;41.708;44.804;2023-05-01T07:29:07;4.90;;;1.38;;
80172;SDS011;69497;41.708;44.804;2023-05-01T07:31:33;3.97;;;1.40;;
80172;SDS011;69497;41.708;44.804;2023-05-01T07:33:59;9.77;;;1.20;;
80172;SDS011;69497;41.708;44.804;2023-05-01T07:36:25;6.78;;;1.30;;
80172;SDS011;69497;41.708;44.804;2023-05-01T07:38:51;5.10;;;1.10;;
80172;SDS011;69497;41.708;44.804;2023-05-01T07:41:17;4.45;;;1.17;;
80172;SDS011;69497;41.708;44.804;2023-05-01T07:43:43;2.97;;;1.20;;
80172;SDS011;69497;41.708;44.804;2023-05-01T07:46:09;3.20;;;1.08;;
80172;SDS011;69497;41.708;44.804;2023-05-01T07:48:37;3.47;;;0.90;;
80172;SDS011;69497;41.708;44.804;2023-05-01T07:51:04;3.53;;;1.30;;
80172;SDS011;69497;41.708;44.804;2023-05-01T07:53:30;4.97;;;1.30;;
80172;SDS011;69497;41.708;44.804;2023-05-01T07:56:06;5.47;;;1.20;;
80172;SDS011;69497;41.708;44.804;2023-05-01T07:58:34;3.08;;;1.23;;
80172;SDS011;69497;41.708;44.804;2023-05-01T08:01:01;3.90;;;1.48;;
80172;SDS011;69497;41.708;44.804;2023-05-01T08:03:28;5.05;;;1.40;;
80172;SDS011;69497;41.708;44.804;2023-05-01T08:05:55;2.67;;;1.10;;
80172;SDS011;69497;41.708;44.804;2023-05-01T08:08:21;3.83;;;1.30;;
80172;SDS011;69497;41.708;44.804;2023-05-01T08:10:47;4.30;;;1.50;;
80172;SDS011;69497;41.708;44.804;2023-05-01T08:13:13;6.25;;;1.48;;
80172;SDS011;69497;41.708;44.804;2023-05-01T08:15:40;2.97;;;1.20;;
80172;SDS011;69497;41.708;44.804;2023-05-01T08:18:07;3.85;;;1.23;;
80172;SDS011;69497;41.708;44.804;2023-05-01T08:20:34;5.32;;;1.50;;
80172;SDS011;69497;41.708;44.804;2023-05-01T08:23:01;7.05;;;1.13;;
80172;SDS011;69497;41.708;44.804;2023-05-01T08:25:27;3.17;;;1.00;;
80172;SDS011;69497;41.708;44.804;2023-05-01T08:27:53;1.92;;;1.00;;
80172;SDS011;69497;41.708;44.804;2023-05-01T08:30:20;4.15;;;1.67;;
80172;SDS011;69497;41.708;44.804;2023-05-01T08:32:46;3.75;;;1.40;;
80172;SDS011;69497;41.708;44.804;2023-05-01T08:35:12;2.30;;;1.05;;
80172;SDS011;69497;41.708;44.804;2023-05-01T08:37:38;2.28;;;1.00;;
80172;SDS011;69497;41.708;44.804;2023-05-01T08:40:04;4.47;;;1.00;;
80172;SDS011;69497;41.708;44.804;2023-05-01T08:42:36;3.00;;;1.10;;
80172;SDS011;69497;41.708;44.804;2023-05-01T08:45:06;1.73;;;1.00;;
80172;SDS011;69497;41.708;44.804;2023-05-01T08:47:35;3.92;;;1.02;;
80172;SDS011;69497;41.708;44.804;2023-05-01T08:50:03;2.65;;;1.05;;
80172;SDS011;69497;41.708;44.804;2023-05-01T08:52:30;2.05;;;1.00;;
80172;SDS011;69497;41.708;44.804;2023-05-01T08:54:57;2.95;;;1.10;;
80172;SDS011;69497;41.708;44.804;2023-05-01T08:57:24;2.47;;;1.00;;
80172;SDS011;69497;41.708;44.804;2023-05-01T08:59:52;3.05;;;1.35;;
80172;SDS011;69497;41.708;44.804;2023-05-01T09:02:20;2.67;;;1.10;;
80172;SDS011;69497;41.708;44.804;2023-05-01T09:04:48;4.22;;;1.42;;
80172;SDS011;69497;41.708;44.804;2023-05-01T09:07:16;3.00;;;1.10;;
80172;SDS011;69497;41.708;44.804;2023-05-01T09:09:42;2.78;;;1.23;;
80172;SDS011;69497;41.708;44.804;2023-05-01T09:12:20;2.30;;;1.00;;
80172;SDS011;69497;41.708;44.804;2023-05-01T09:14:53;1.92;;;1.00;;
80172;SDS011;69497;41.708;44.804;2023-05-01T09:17:21;6.28;;;1.25;;
80172;SDS011;69497;41.708;44.804;2023-05-01T09:19:48;3.15;;;1.20;;
80172;SDS011;69497;41.708;44.804;2023-05-01T09:22:16;2.78;;;1.35;;
80172;SDS011;69497;41.708;44.804;2023-05-01T09:24:46;5.28;;;1.13;;
80172;SDS011;69497;41.708;44.804;2023-05-01T09:27:13;3.72;;;1.25;;
80172;SDS011;69497;41.708;44.804;2023-05-01T09:29:40;3.00;;;1.20;;
80172;SDS011;69497;41.708;44.804;2023-05-01T09:32:12;5.65;;;1.40;;
80172;SDS011;69497;41.708;44.804;2023-05-01T09:34:42;3.35;;;1.20;;
80172;SDS011;69497;41.708;44.804;2023-05-01T09:37:13;4.47;;;1.45;;
80172;SDS011;69497;41.708;44.804;2023-05-01T09:42:36;3.00;;;1.33;;
80172;SDS011;69497;41.708;44.804;2023-05-01T09:45:05;11.27;;;1.70;;
80172;SDS011;69497;41.708;44.804;2023-05-01T09:47:38;4.07;;;1.70;;
80172;SDS011;69497;41.708;44.804;2023-05-01T09:50:06;4.97;;;1.60;;
80172;SDS011;69497;41.708;44.804;2023-05-01T09:52:32;6.38;;;1.50;;
80172;SDS011;69497;41.708;44.804;2023-05-01T09:55:11;15.10;;;1.60;;
80172;SDS011;69497;41.708;44.804;2023-05-01T09:57:38;6.30;;;1.48;;
80172;SDS011;69497;41.708;44.804;2023-05-01T10:00:07;11.20;;;1.48;;
80172;SDS011;69497;41.708;44.804;2023-05-01T10:02:34;7.00;;;1.65;;
80172;SDS011;69497;41.708;44.804;2023-05-01T10:05:01;9.60;;;2.67;;
80172;SDS011;69497;41.708;44.804;2023-05-01T10:07:28;7.30;;;2.10;;
80172;SDS011;69497;41.708;44.804;2023-05-01T10:09:54;6.75;;;1.98;;
80172;SDS011;69497;41.708;44.804;2023-05-01T10:12:24;6.57;;;1.98;;
80172;SDS011;69497;41.708;44.804;2023-05-01T10:14:54;7.30;;;2.83;;
80172;SDS011;69497;41.708;44.804;2023-05-01T10:17:22;6.03;;;2.55;;
80172;SDS011;69497;41.708;44.804;2023-05-01T10:19:48;9.35;;;2.88;;
80172;SDS011;69497;41.708;44.804;2023-05-01T10:22:17;8.75;;;2.60;;
80172;SDS011;69497;41.708;44.804;2023-05-01T10:24:43;9.20;;;3.03;;
80172;SDS011;69497;41.708;44.804;2023-05-01T10:27:10;8.68;;;3.13;;
80172;SDS011;69497;41.708;44.804;2023-05-01T10:29:39;7.00;;;3.40;;
80172;SDS011;69497;41.708;44.804;2023-05-01T10:32:09;11.57;;;4.15;;
80172;SDS011;69497;41.708;44.804;2023-05-01T10:34:40;15.55;;;4.43;;
80172;SDS011;69497;41.708;44.804;2023-05-01T10:37:10;9.60;;;3.70;;
80172;SDS011;69497;41.708;44.804;2023-05-01T10:39:40;7.18;;;4.10;;
80172;SDS011;69497;41.708;44.804;2023-05-01T10:42:07;10.30;;;4.20;;
80172;SDS011;69497;41.708;44.804;2023-05-01T10:44:39;11.05;;;4.70;;
80172;SDS011;69497;41.708;44.804;2023-05-01T10:50:09;14.73;;;3.60;;
80172;SDS011;69497;41.708;44.804;2023-05-01T10:58:10;11.40;;;4.00;;
80172;SDS011;69497;41.708;44.804;2023-05-01T11:00:37;10.90;;;3.90;;
80172;SDS011;69497;41.708;44.804;2023-05-01T11:06:05;7.57;;;3.60;;
80172;SDS011;69497;41.708;44.804;2023-05-01T11:08:32;8.80;;;3.20;;
80172;SDS011;69497;41.708;44.804;2023-05-01T11:21:39;8.40;;;2.45;;
80172;SDS011;69497;41.708;44.804;2023-05-01T11:24:06;5.45;;;2.28;;
80172;SDS011;69497;41.708;44.804;2023-05-01T11:26:36;5.88;;;2.47;;
80172;SDS011;69497;41.708;44.804;2023-05-01T11:29:03;6.07;;;2.40;;
80172;SDS011;69497;41.708;44.804;2023-05-01T11:31:30;5.28;;;2.70;;
80172;SDS011;69497;41.708;44.804;2023-05-01T11:33:57;6.30;;;2.47;;
80172;SDS011;69497;41.708;44.804;2023-05-01T11:36:25;6.00;;;2.45;;
80172;SDS011;69497;41.708;44.804;2023-05-01T11:38:55;4.43;;;2.30;;
80172;SDS011;69497;41.708;44.804;2023-05-01T11:41:25;4.80;;;2.08;;
80172;SDS011;69497;41.708;44.804;2023-05-01T11:43:52;5.18;;;1.88;;
80172;SDS011;69497;41.708;44.804;2023-05-01T11:48:57;6.05;;;2.35;;
80172;SDS011;69497;41.708;44.804;2023-05-01T11:51:24;3.75;;;2.00;;
80172;SDS011;69497;41.708;44.804;2023-05-01T11:53:57;10.10;;;2.17;;
80172;SDS011;69497;41.708;44.804;2023-05-01T11:56:28;7.88;;;2.00;;
80172;SDS011;69497;41.708;44.804;2023-05-01T11:58:55;5.63;;;1.67;;
80172;SDS011;69497;41.708;44.804;2023-05-01T12:01:55;8.02;;;2.22;;
80172;SDS011;69497;41.708;44.804;2023-05-01T12:04:25;7.35;;;2.72;;
80172;SDS011;69497;41.708;44.804;2023-05-01T12:06:52;7.88;;;2.70;;
80172;SDS011;69497;41.708;44.804;2023-05-01T12:09:20;4.88;;;2.38;;
80172;SDS011;69497;41.708;44.804;2023-05-01T12:11:49;9.57;;;2.55;;
80172;SDS011;69497;41.708;44.804;2023-05-01T12:14:16;5.03;;;1.92;;
80172;SDS011;69497;41.708;44.804;2023-05-01T12:16:43;8.10;;;2.13;;
80172;SDS011;69497;41.708;44.804;2023-05-01T12:19:11;3.78;;;1.92;;
80172;SDS011;69497;41.708;44.804;2023-05-01T12:21:38;9.45;;;2.55;;
80172;SDS011;69497;41.708;44.804;2023-05-01T12:24:17;4.55;;;1.77;;
80172;SDS011;69497;41.708;44.804;2023-05-01T12:26:44;7.28;;;2.05;;
80172;SDS011;69497;41.708;44.804;2023-05-01T12:29:11;5.72;;;1.80;;
80172;SDS011;69497;41.708;44.804;2023-05-01T12:31:44;5.05;;;2.13;;
80172;SDS011;69497;41.708;44.804;2023-05-01T12:34:12;8.88;;;3.20;;
80172;SDS011;69497;41.708;44.804;2023-05-01T12:36:38;4.65;;;2.28;;
80172;SDS011;69497;41.708;44.804;2023-05-01T12:39:05;4.00;;;2.00;;
80172;SDS011;69497;41.708;44.804;2023-05-01T12:41:46;8.48;;;2.90;;
80172;SDS011;69497;41.708;44.804;2023-05-01T12:47:07;4.38;;;2.20;;
80172;SDS011;69497;41.708;44.804;2023-05-01T12:49:34;3.95;;;1.73;;
80172;SDS011;69497;41.708;44.804;2023-05-01T12:52:02;4.22;;;1.92;;
80172;SDS011;69497;41.708;44.804;2023-05-01T12:54:34;3.78;;;1.70;;
80172;SDS011;69497;41.708;44.804;2023-05-01T12:57:14;4.57;;;1.70;;
80172;SDS011;69497;41.708;44.804;2023-05-01T12:59:42;4.32;;;1.50;;
80172;SDS011;69497;41.708;44.804;2023-05-01T13:02:13;4.55;;;1.70;;
80172;SDS011;69497;41.708;44.804;2023-05-01T13:04:41;5.60;;;2.03;;
80172;SDS011;69497;41.708;44.804;2023-05-01T13:07:15;7.25;;;1.90;;
80172;SDS011;69497;41.708;44.804;2023-05-01T13:09:52;10.43;;;2.35;;
80172;SDS011;69497;41.708;44.804;2023-05-01T13:12:23;4.60;;;1.88;;
80172;SDS011;69497;41.708;44.804;2023-05-01T13:14:49;4.40;;;1.60;;
80172;SDS011;69497;41.708;44.804;2023-05-01T13:17:24;7.25;;;1.60;;
80172;SDS011;69497;41.708;44.804;2023-05-01T13:22:29;18.10;;;2.10;;
80172;SDS011;69497;41.708;44.804;2023-05-01T13:25:00;20.70;;;2.13;;
80172;SDS011;69497;41.708;44.804;2023-05-01T13:27:28;5.53;;;1.80;;
80172;SDS011;69497;41.708;44.804;2023-05-01T13:29:55;3.92;;;1.60;;
80172;SDS011;69497;41.708;44.804;2023-05-01T13:32:23;7.70;;;1.40;;
80172;SDS011;69497;41.708;44.804;2023-05-01T13:34:50;5.57;;;2.00;;
80172;SDS011;69497;41.708;44.804;2023-05-01T13:37:18;5.30;;;1.52;;
80172;SDS011;69497;41.708;44.804;2023-05-01T13:39:45;5.00;;;1.55;;
80172;SDS011;69497;41.708;44.804;2023-05-01T13:42:14;6.43;;;1.50;;
80172;SDS011;69497;41.708;44.804;2023-05-01T13:44:51;5.45;;;1.60;;
80172;SDS011;69497;41.708;44.804;2023-05-01T13:47:22;3.95;;;1.70;;
80172;SDS011;69497;41.708;44.804;2023-05-01T13:49:52;4.43;;;1.60;;
80172;SDS011;69497;41.708;44.804;2023-05-01T13:52:19;6.32;;;1.90;;
80172;SDS011;69497;41.708;44.804;2023-05-01T13:54:46;4.50;;;1.60;;
80172;SDS011;69497;41.708;44.804;2023-05-01T13:57:13;3.85;;;1.70;;
80172;SDS011;69497;41.708;44.804;2023-05-01T13:59:42;5.35;;;1.85;;
80172;SDS011;69497;41.708;44.804;2023-05-01T14:02:19;7.63;;;1.83;;
80172;SDS011;69497;41.708;44.804;2023-05-01T14:04:49;11.68;;;1.80;;
80172;SDS011;69497;41.708;44.804;2023-05-01T14:07:19;3.63;;;1.30;;
80172;SDS011;69497;41.708;44.804;2023-05-01T14:09:52;8.68;;;1.60;;
80172;SDS011;69497;41.708;44.804;2023-05-01T14:12:25;4.18;;;1.65;;
80172;SDS011;69497;41.708;44.804;2023-05-01T14:14:53;6.88;;;1.42;;
80172;SDS011;69497;41.708;44.804;2023-05-01T14:17:40;7.80;;;1.42;;
80172;SDS011;69497;41.708;44.804;2023-05-01T14:22:39;4.50;;;2.00;;
80172;SDS011;69497;41.708;44.804;2023-05-01T14:27:44;5.45;;;2.08;;
80172;SDS011;69497;41.708;44.804;2023-05-01T14:30:32;4.78;;;2.13;;
80172;SDS011;69497;41.708;44.804;2023-05-01T14:33:01;4.75;;;2.00;;
80172;SDS011;69497;41.708;44.804;2023-05-01T14:35:28;13.10;;;2.83;;
80172;SDS011;69497;41.708;44.804;2023-05-01T14:37:54;10.40;;;2.08;;
80172;SDS011;69497;41.708;44.804;2023-05-01T14:40:26;3.35;;;1.70;;
80172;SDS011;69497;41.708;44.804;2023-05-01T14:42:53;5.18;;;1.85;;
80172;SDS011;69497;41.708;44.804;2023-05-01T14:45:21;5.18;;;1.80;;
80172;SDS011;69497;41.708;44.804;2023-05-01T14:47:48;4.65;;;1.73;;
80172;SDS011;69497;41.708;44.804;2023-05-01T14:50:20;5.75;;;1.48;;
80172;SDS011;69497;41.708;44.804;2023-05-01T14:52:54;8.63;;;1.67;;
80172;SDS011;69497;41.708;44.804;2023-05-01T14:55:26;6.45;;;2.05;;
80172;SDS011;69497;41.708;44.804;2023-05-01T14:57:54;6.30;;;1.80;;
80172;SDS011;69497;41.708;44.804;2023-05-01T15:00:21;4.03;;;1.20;;
80172;SDS011;69497;41.708;44.804;2023-05-01T15:02:48;3.53;;;1.33;;
80172;SDS011;69497;41.708;44.804;2023-05-01T15:05:15;4.07;;;1.67;;
80172;SDS011;69497;41.708;44.804;2023-05-01T15:07:42;5.63;;;1.55;;
80172;SDS011;69497;41.708;44.804;2023-05-01T15:10:09;4.55;;;1.50;;
80172;SDS011;69497;41.708;44.804;2023-05-01T15:12:35;3.33;;;1.40;;
80172;SDS011;69497;41.708;44.804;2023-05-01T15:15:01;6.03;;;1.67;;
80172;SDS011;69497;41.708;44.804;2023-05-01T15:17:28;3.88;;;1.30;;
80172;SDS011;69497;41.708;44.804;2023-05-01T15:19:54;4.20;;;1.60;;
80172;SDS011;69497;41.708;44.804;2023-05-01T15:22:20;4.97;;;1.50;;
80172;SDS011;69497;41.708;44.804;2023-05-01T15:24:46;6.47;;;1.67;;
80172;SDS011;69497;41.708;44.804;2023-05-01T15:27:12;3.67;;;1.20;;
80172;SDS011;69497;41.708;44.804;2023-05-01T15:29:38;3.92;;;1.73;;
80172;SDS011;69497;41.708;44.804;2023-05-01T15:32:04;2.85;;;1.40;;
80172;SDS011;69497;41.708;44.804;2023-05-01T15:34:31;4.40;;;1.30;;
80172;SDS011;69497;41.708;44.804;2023-05-01T15:36:58;4.63;;;1.67;;
80172;SDS011;69497;41.708;44.804;2023-05-01T15:39:24;5.25;;;1.50;;